Time;durP1;ratioP1;P1;durP2;ratioP2;P2;SDS_P1;SDS_P2;PMS_P1;PMS_P2;Temp;Humidity;BMP_temperature;BMP_pressure;BME280_temperature;BME280_humidity;BME280_pressure;Samples;Min_cycle;Max_cycle;Signal;HPM_P1;HPM_P2
2022/01/19 00:01:23;;;;;;;56.13;19.30;;;4.20;99.90;;;;;;4861715;29;20045;-90
2022/01/19 00:03:49;;;;;;;59.70;19.93;;;3.80;99.90;;;;;;4876732;29;20054;-92
2022/01/19 00:06:15;;;;;;;57.30;20.70;;;3.90;99.90;;;;;;4876074;29;20148;-91
2022/01/19 00:08:52;;;;;;;53.03;18.77;;;4.00;99.90;;;;;;4877917;29;20101;-91
2022/01/19 00:11:17;;;;;;;53.30;19.40;;;4.60;99.90;;;;;;4885096;23;20469;-91
2022/01/19 00:13:55;;;;;;;57.97;18.70;;;3.90;99.90;;;;;;4865796;29;20049;-91
2022/01/19 00:16:36;;;;;;;53.47;19.37;;;5.70;99.90;;;;;;4871902;29;20049;-91
2022/01/19 00:19:02;;;;;;;53.20;19.00;;;4.80;99.90;;;;;;4870838;29;20056;-91
2022/01/19 00:21:27;;;;;;;54.33;19.57;;;4.10;99.90;;;;;;4864464;29;20454;-91
2022/01/19 00:23:53;;;;;;;51.17;19.30;;;4.10;99.90;;;;;;4864602;29;20052;-91
2022/01/19 00:26:19;;;;;;;52.63;17.93;;;4.30;99.90;;;;;;4863208;29;20072;-91
2022/01/19 00:28:44;;;;;;;54.57;18.53;;;5.00;99.90;;;;;;4863928;29;20037;-91
2022/01/19 00:31:10;;;;;;;55.10;18.83;;;4.10;99.90;;;;;;4864481;29;20049;-91
2022/01/19 00:33:41;;;;;;;56.30;18.73;;;4.00;99.90;;;;;;4863140;29;20048;-90
2022/01/19 00:36:10;;;;;;;45.83;18.17;;;4.10;99.90;;;;;;4863931;29;20544;-90
2022/01/19 00:38:36;;;;;;;53.80;18.53;;;4.00;99.90;;;;;;4863738;29;20052;-91
2022/01/19 00:41:02;;;;;;;52.87;18.30;;;4.50;99.90;;;;;;4863498;29;20049;-91
2022/01/19 00:43:36;;;;;;;49.53;17.37;;;4.40;99.90;;;;;;4863837;29;20080;-91
2022/01/19 00:46:03;;;;;;;44.13;17.00;;;4.00;99.90;;;;;;4867163;23;20098;-91
2022/01/19 00:48:29;;;;;;;45.17;16.60;;;4.30;99.90;;;;;;4860370;29;20045;-91
2022/01/19 00:51:08;;;;;;;45.23;17.00;;;4.90;99.90;;;;;;4860945;29;20056;-91
2022/01/19 00:53:46;;;;;;;46.37;17.50;;;4.10;99.90;;;;;;4869915;29;20137;-91
2022/01/19 00:56:12;;;;;;;44.40;16.17;;;4.10;99.90;;;;;;4862328;29;20045;-91
2022/01/19 00:58:53;;;;;;;43.67;15.93;;;4.00;99.90;;;;;;4860952;29;20132;-91
2022/01/19 01:01:18;;;;;;;40.37;15.57;;;3.20;99.90;;;;;;4860202;29;20059;-91
2022/01/19 01:03:45;;;;;;;48.60;16.80;;;;;;;;;;4860799;29;20049;-91
2022/01/19 01:06:14;;;;;;;41.03;15.40;;;4.20;99.90;;;;;;4861328;29;20058;-91
2022/01/19 01:08:40;;;;;;;43.53;16.20;;;4.60;99.90;;;;;;4860403;29;20274;-91
2022/01/19 01:11:05;;;;;;;41.80;16.47;;;3.90;99.90;;;;;;4870419;23;20068;-91
2022/01/19 01:15:26;;;;;;;44.23;15.97;;;4.60;99.90;;;;;;4864022;29;20136;-91
2022/01/19 01:16:40;;;;;;;45.07;15.37;;;3.70;99.90;;;;;;4862774;29;20383;-91
2022/01/19 01:19:21;;;;;;;38.30;14.97;;;3.90;99.90;;;;;;4863062;29;20068;-92
2022/01/19 01:21:47;;;;;;;40.43;14.13;;;4.60;99.90;;;;;;4862987;29;20049;-91
2022/01/19 01:24:13;;;;;;;37.40;14.27;;;4.80;99.90;;;;;;4863282;29;20052;-91
2022/01/19 01:26:39;;;;;;;43.13;14.37;;;3.10;99.90;;;;;;4863442;29;20405;-91
2022/01/19 01:29:05;;;;;;;42.03;13.93;;;3.20;99.90;;;;;;4874163;29;20063;-91
2022/01/19 01:31:30;;;;;;;44.13;14.00;;;3.00;99.90;;;;;;4873146;29;20037;-91
2022/01/19 01:33:56;;;;;;;36.73;13.80;;;2.80;99.90;;;;;;4864551;29;20108;-91
2022/01/19 01:36:26;;;;;;;38.70;13.13;;;2.80;99.90;;;;;;4862727;29;20139;-91
2022/01/19 01:38:52;;;;;;;37.10;13.73;;;2.70;99.90;;;;;;4864326;29;20053;-91
2022/01/19 01:42:10;;;;;;;46.40;15.43;;;2.60;99.90;;;;;;4862776;29;20132;-91
2022/01/19 01:44:37;;;;;;;42.67;14.93;;;1.50;99.90;;;;;;4861875;29;20512;-91
2022/01/19 01:47:14;;;;;;;42.93;13.33;;;2.30;99.90;;;;;;4862770;29;20060;-91
2022/01/19 01:55:15;;;;;;;55.63;15.07;;;2.00;99.90;;;;;;4869689;29;20060;-92
2022/01/19 01:57:41;;;;;;;41.83;14.27;;;1.90;99.90;;;;;;4868477;29;20062;-92
2022/01/19 02:00:17;;;;;;;41.33;14.57;;;1.90;99.90;;;;;;4869268;29;20049;-91
2022/01/19 02:02:54;;;;;;;42.80;14.77;;;2.20;99.90;;;;;;4869472;29;20120;-92
2022/01/19 02:05:22;;;;;;;42.30;16.93;;;1.70;99.90;;;;;;4874630;29;20041;-91
2022/01/19 02:23:53;;;;;;;74.07;21.57;;;2.30;99.90;;;;;;4876510;23;20059;-91
2022/01/19 02:26:27;;;;;;;77.63;21.67;;;2.20;99.90;;;;;;4876664;29;20061;-92
2022/01/19 02:50:51;;;;;;;80.03;19.30;;;0.70;99.90;;;;;;4865994;29;20050;-91
2022/01/19 02:53:25;;;;;;;78.30;18.80;;;1.70;99.90;;;;;;4865150;29;20406;-91
2022/01/19 02:55:51;;;;;;;75.63;18.80;;;3.30;99.90;;;;;;4866412;29;20073;-91
2022/01/19 02:58:26;;;;;;;85.47;19.30;;;1.60;99.90;;;;;;4866252;29;20084;-91
2022/01/19 03:10:34;;;;;;;355.07;31.00;;;2.70;99.90;;;;;;4850536;29;20049;-91
2022/01/19 03:12:59;;;;;;;237.17;27.83;;;2.50;99.90;;;;;;4848974;29;20498;-91
2022/01/19 03:15:46;;;;;;;248.33;28.77;;;1.50;99.90;;;;;;4846762;29;20052;-91
2022/01/19 03:18:21;;;;;;;257.23;28.10;;;2.80;99.90;;;;;;4857462;29;20056;-91
2022/01/19 03:20:53;;;;;;;310.60;29.37;;;1.60;99.90;;;;;;4861443;29;20057;-92
2022/01/19 03:23:30;;;;;;;419.27;33.67;;;2.60;99.90;;;;;;4846612;29;20513;-92
2022/01/19 03:26:06;;;;;;;329.17;28.60;;;2.20;99.90;;;;;;4847119;29;20046;-91
2022/01/19 03:28:32;;;;;;;351.70;32.63;;;2.60;99.90;;;;;;4846496;29;20128;-92
2022/01/19 03:30:58;;;;;;;370.70;31.83;;;1.80;99.90;;;;;;4846990;29;20054;-91
2022/01/19 03:33:24;;;;;;;341.50;29.80;;;1.70;99.90;;;;;;4846748;29;20119;-91
2022/01/19 03:35:56;;;;;;;331.27;30.83;;;1.70;99.90;;;;;;4845578;29;20049;-92
2022/01/19 03:38:22;;;;;;;377.20;31.37;;;2.50;99.90;;;;;;4847068;29;20401;-91
2022/01/19 03:40:48;;;;;;;204.13;24.97;;;1.70;99.90;;;;;;4847196;29;20053;-91
2022/01/19 03:43:17;;;;;;;180.70;23.73;;;1.70;99.90;;;;;;4846485;29;20122;-91
2022/01/19 03:45:53;;;;;;;203.40;25.23;;;1.40;99.90;;;;;;4847034;29;20084;-91
2022/01/19 03:48:36;;;;;;;232.30;25.40;;;1.60;99.90;;;;;;4846669;29;20064;-91
2022/01/19 03:51:03;;;;;;;277.67;27.40;;;1.70;99.90;;;;;;4846366;29;20056;-91
2022/01/19 03:53:34;;;;;;;199.60;25.13;;;1.50;99.90;;;;;;4849654;29;20049;-91
2022/01/19 03:56:00;;;;;;;169.83;22.13;;;2.80;99.90;;;;;;4869678;29;20072;-91
2022/01/19 03:58:36;;;;;;;161.27;23.87;;;1.50;99.90;;;;;;4850952;29;20049;-92
2022/01/19 04:01:10;;;;;;;208.07;26.17;;;2.20;99.90;;;;;;4846182;29;20045;-91
2022/01/19 04:04:04;;;;;;;147.13;21.30;;;2.70;99.90;;;;;;4845860;29;20080;-91
2022/01/19 04:06:54;;;;;;;115.07;19.83;;;1.40;99.90;;;;;;4843453;29;20097;-92
2022/01/19 04:09:46;;;;;;;122.53;21.13;;;1.30;99.90;;;;;;4844659;29;20045;-91
2022/01/19 04:12:17;;;;;;;80.40;19.27;;;1.30;99.90;;;;;;4842368;29;20075;-91
2022/01/19 04:14:48;;;;;;;108.47;19.83;;;1.30;99.90;;;;;;4843108;29;20129;-92
2022/01/19 04:17:24;;;;;;;114.10;20.10;;;1.20;99.90;;;;;;4842839;29;20053;-91
2022/01/19 04:19:49;;;;;;;76.60;18.23;;;3.00;99.90;;;;;;4843783;29;20041;-91
2022/01/19 04:22:21;;;;;;;75.10;18.60;;;1.10;99.90;;;;;;4827477;29;20048;-91
2022/01/19 04:24:52;;;;;;;122.87;21.07;;;2.30;99.90;;;;;;4842678;29;20054;-91
2022/01/19 04:35:43;;;;;;;87.17;18.90;;;0.80;99.90;;;;;;4842625;29;20057;-91
2022/01/19 04:39:08;;;;;;;65.00;16.93;;;1.00;99.90;;;;;;4842731;29;20058;-92
2022/01/19 04:44:33;;;;;;;80.13;19.00;;;0.90;99.90;;;;;;4885027;24;20128;-91
2022/01/19 05:04:03;;;;;;;56.97;16.37;;;2.50;99.90;;;;;;4861925;29;20108;-91
2022/01/19 05:07:03;;;;;;;66.20;19.63;;;-0.50;99.90;;;;;;4869102;29;20065;-90
2022/01/19 05:14:49;;;;;;;59.37;17.47;;;0.40;99.90;;;;;;4825851;29;20042;-91
2022/01/19 05:17:14;;;;;;;72.33;18.77;;;0.30;99.90;;;;;;4858247;29;20152;-91
2022/01/19 05:19:40;;;;;;;58.37;18.37;;;0.90;99.90;;;;;;4879470;29;20438;-91
2022/01/19 05:22:15;;;;;;;62.67;18.60;;;0.10;99.90;;;;;;4862531;29;20051;-91
2022/01/19 05:24:53;;;;;;;68.07;18.20;;;0.10;99.90;;;;;;4863329;29;20125;-91
2022/01/19 05:27:31;;;;;;;59.57;18.77;;;1.40;99.90;;;;;;4863517;29;20061;-91
2022/01/19 05:30:10;;;;;;;66.73;19.13;;;0.00;99.90;;;;;;4862816;29;20049;-91
2022/01/19 05:32:48;;;;;;;87.17;21.37;;;0.30;99.90;;;;;;4863384;29;20072;-91
2022/01/19 05:35:20;;;;;;;118.37;21.63;;;0.00;99.90;;;;;;4862717;29;20405;-91
2022/01/19 05:37:52;;;;;;;113.90;23.47;;;1.60;99.90;;;;;;4879353;29;20077;-93
2022/01/19 05:40:24;;;;;;;184.30;26.93;;;0.70;99.90;;;;;;4863521;29;20113;-91
2022/01/19 05:42:57;;;;;;;114.17;23.93;;;0.70;99.90;;;;;;4889712;29;20139;-91
2022/01/19 05:45:26;;;;;;;169.57;26.23;;;0.50;99.90;;;;;;4900165;29;20053;-91
2022/01/19 05:47:55;;;;;;;184.87;27.00;;;2.60;99.90;;;;;;4885224;29;20085;-91
2022/01/19 05:50:30;;;;;;;174.30;26.97;;;1.40;99.90;;;;;;4878879;29;20049;-92
2022/01/19 05:53:07;;;;;;;214.87;28.13;;;2.50;99.90;;;;;;4895179;29;20049;-91
2022/01/19 05:55:39;;;;;;;263.17;29.10;;;0.30;99.90;;;;;;4878560;29;20060;-90
2022/01/19 05:58:08;;;;;;;246.50;26.83;;;0.10;99.90;;;;;;4881948;23;20029;-91
2022/01/19 06:00:40;;;;;;;168.33;24.00;;;0.60;99.90;;;;;;4861233;29;20045;-91
2022/01/19 06:03:16;;;;;;;201.53;25.13;;;2.00;99.90;;;;;;4845303;29;20837;-91
2022/01/19 06:05:45;;;;;;;212.03;26.33;;;0.40;99.90;;;;;;4866254;23;20422;-91
2022/01/19 06:10:47;;;;;;;123.40;23.37;;;0.40;99.90;;;;;;4865565;23;20415;-92
2022/01/19 06:13:19;;;;;;;172.67;26.23;;;-0.30;99.90;;;;;;4863233;29;20051;-91
2022/01/19 06:15:53;;;;;;;153.47;25.43;;;1.20;99.90;;;;;;4878979;29;20055;-91
2022/01/19 06:18:25;;;;;;;125.30;23.07;;;0.70;99.90;;;;;;4877771;29;20064;-91
2022/01/19 06:21:00;;;;;;;137.33;27.90;;;0.30;99.90;;;;;;4883002;29;20065;-92
2022/01/19 06:23:36;;;;;;;136.60;27.37;;;0.50;99.90;;;;;;4884366;29;20477;-92
2022/01/19 06:26:14;;;;;;;138.97;28.93;;;0.50;99.90;;;;;;4863293;29;20045;-91
2022/01/19 06:28:39;;;;;;;138.03;29.20;;;1.20;99.90;;;;;;4878610;23;20498;-92
2022/01/19 06:31:06;;;;;;;114.80;28.87;;;0.70;99.90;;;;;;4874939;29;20491;-92
2022/01/19 06:33:35;;;;;;;126.87;29.87;;;0.80;99.90;;;;;;4844247;29;20064;-92
2022/01/19 06:36:09;;;;;;;107.43;29.40;;;2.40;99.90;;;;;;4862347;29;20111;-92
2022/01/19 06:38:38;;;;;;;108.30;30.47;;;1.10;99.90;;;;;;4848424;29;20050;-94
2022/01/19 06:41:10;;;;;;;113.80;29.70;;;0.70;99.90;;;;;;4864216;29;20522;-94
2022/01/19 06:43:45;;;;;;;110.03;30.97;;;2.00;99.90;;;;;;4863582;29;20068;-94
2022/01/19 06:46:17;;;;;;;108.60;31.27;;;0.70;99.90;;;;;;4848589;29;20092;-93
2022/01/19 06:48:49;;;;;;;116.30;32.50;;;0.90;99.90;;;;;;4864242;29;20126;-92
2022/01/19 06:51:24;;;;;;;105.20;32.10;;;1.10;99.90;;;;;;4865340;29;20049;-95
2022/01/19 06:54:05;;;;;;;89.97;30.73;;;1.00;99.90;;;;;;4863789;29;20053;-90
2022/01/19 06:56:40;;;;;;;92.97;30.13;;;2.70;99.90;;;;;;4860318;29;20040;-93
2022/01/19 06:59:15;;;;;;;84.20;30.07;;;2.20;99.90;;;;;;4876922;29;20053;-93
2022/01/19 07:01:50;;;;;;;71.47;27.30;;;1.00;99.90;;;;;;4839971;29;20098;-92
2022/01/19 07:04:22;;;;;;;68.37;29.10;;;1.20;99.90;;;;;;4860051;29;20050;-94
2022/01/19 07:06:58;;;;;;;76.13;29.83;;;2.70;99.90;;;;;;4862908;29;20477;-92
2022/01/19 07:09:30;;;;;;;68.27;28.37;;;1.30;99.90;;;;;;4862496;29;20140;-91
2022/01/19 07:12:08;;;;;;;74.90;30.63;;;1.40;99.90;;;;;;4844921;29;20046;-93
2022/01/19 07:14:45;;;;;;;80.37;32.23;;;1.70;99.90;;;;;;4853109;29;20105;-93
2022/01/19 07:17:17;;;;;;;73.87;30.50;;;0.70;99.90;;;;;;4863493;29;20042;-93
2022/01/19 07:19:43;;;;;;;70.77;31.13;;;1.80;99.90;;;;;;4848101;29;20050;-93
2022/01/19 07:22:09;;;;;;;65.67;30.43;;;1.60;99.90;;;;;;4876840;23;20102;-93
2022/01/19 07:24:39;;;;;;;68.97;31.13;;;0.40;99.90;;;;;;4863727;29;20110;-94
2022/01/19 07:27:10;;;;;;;73.00;31.03;;;1.60;99.90;;;;;;4847783;29;20132;-93
2022/01/19 07:29:39;;;;;;;66.53;30.70;;;1.60;99.90;;;;;;4864051;29;20050;-93
2022/01/19 07:32:09;;;;;;;59.83;28.53;;;1.80;99.90;;;;;;4885086;23;20053;-95
2022/01/19 07:34:35;;;;;;;60.30;30.63;;;1.70;99.90;;;;;;4866382;29;20057;-94
2022/01/19 07:39:38;;;;;;;61.00;29.93;;;2.10;99.90;;;;;;4943279;23;20061;-95
2022/01/19 07:42:04;;;;;;;53.47;28.17;;;1.60;99.90;;;;;;4866684;29;20124;-96
2022/01/19 07:44:54;;;;;;;;;;;3.10;99.90;;;;;;4866817;29;20064;-93
2022/01/19 07:47:20;;;;;;;50.80;26.27;;;2.90;99.90;;;;;;4865132;29;20022;-93
2022/01/19 07:49:59;;;;;;;52.57;26.53;;;3.80;99.90;;;;;;4889316;24;20080;-91
2022/01/19 07:52:27;;;;;;;52.87;29.03;;;1.90;99.90;;;;;;4879905;29;20390;-93
2022/01/19 07:54:53;;;;;;;55.10;28.47;;;1.90;99.90;;;;;;4880740;29;20060;-94
2022/01/19 08:02:45;;;;;;;47.83;28.07;;;2.20;99.90;;;;;;4927800;23;20463;31
2022/01/19 08:11:14;;;;;;;54.37;29.60;;;2.30;99.90;;;;;;4892157;29;20057;-93
2022/01/19 08:13:49;;;;;;;53.27;28.93;;;2.10;99.90;;;;;;4865463;29;20045;-93
2022/01/19 08:16:23;;;;;;;57.03;28.50;;;2.10;99.90;;;;;;4869253;23;20054;-93
2022/01/19 08:18:49;;;;;;;56.43;28.60;;;3.00;99.90;;;;;;4871740;23;20060;-94
2022/01/19 08:21:15;;;;;;;48.87;28.07;;;2.20;99.90;;;;;;4865069;29;20053;-88
2022/01/19 08:24:24;;;;;;;52.23;28.00;;;2.40;99.90;;;;;;4869612;23;20988;-92
2022/01/19 08:26:49;;;;;;;49.50;27.87;;;2.60;99.90;;;;;;4852357;29;20082;-95
2022/01/19 08:29:30;;;;;;;51.13;28.73;;;2.30;99.90;;;;;;4852961;29;20068;-96
2022/01/19 08:32:18;;;;;;;51.07;28.07;;;3.20;99.90;;;;;;4858735;29;20053;-96
2022/01/19 08:51:02;;;;;;;55.33;27.13;;;2.70;99.90;;;;;;5010998;23;20057;-88
2022/01/19 09:04:23;;;;;;;49.73;27.67;;;2.80;99.90;;;;;;4867454;23;20094;-88
2022/01/19 09:26:02;;;;;;;53.83;28.20;;;3.70;99.90;;;;;;5002245;23;20068;-88
2022/01/19 09:31:10;;;;;;;57.03;30.43;;;2.90;99.90;;;;;;4873661;23;20109;-88
2022/01/19 09:37:26;;;;;;;58.17;31.40;;;2.50;99.90;;;;;;5007015;23;20378;-88
2022/01/19 09:40:26;;;;;;;60.77;31.37;;;2.70;99.90;;;;;;4877857;29;20056;-88
2022/01/19 09:49:43;;;;;;;55.20;30.40;;;3.70;99.90;;;;;;4871902;23;20059;-88
2022/01/19 09:55:48;;;;;;;51.77;26.70;;;3.10;99.90;;;;;;5220159;23;20029;-88
2022/01/19 10:19:22;;;;;;;62.70;31.57;;;2.50;99.90;;;;;;4828057;29;20054;-86
2022/01/19 10:22:13;;;;;;;63.93;31.07;;;4.80;99.90;;;;;;4877874;29;20132;-86
2022/01/19 10:24:48;;;;;;;63.17;31.37;;;3.40;99.90;;;;;;4880247;29;20049;-87
2022/01/19 10:27:37;;;;;;;62.50;32.43;;;4.50;99.90;;;;;;4882401;29;20079;-86
2022/01/19 10:30:03;;;;;;;61.63;30.57;;;3.30;99.90;;;;;;4882367;29;20045;-85
2022/01/19 10:32:45;;;;;;;71.23;33.30;;;3.20;99.90;;;;;;4880497;29;20089;-86
2022/01/19 10:35:33;;;;;;;72.43;32.20;;;3.30;99.90;;;;;;4871418;29;20061;-86
2022/01/19 10:38:25;;;;;;;65.57;31.10;;;3.40;99.90;;;;;;4880562;29;20040;-88
2022/01/19 10:41:09;;;;;;;72.47;32.43;;;3.30;99.90;;;;;;4881417;29;20100;-88
2022/01/19 10:43:46;;;;;;;70.67;33.20;;;3.90;99.90;;;;;;4865465;29;20101;-86
2022/01/19 10:46:29;;;;;;;70.37;33.37;;;3.50;99.90;;;;;;4864265;29;20451;-87
2022/01/19 10:49:21;;;;;;;73.78;34.53;;;3.40;99.90;;;;;;4857096;29;20077;-87
2022/01/19 10:51:48;;;;;;;71.77;30.93;;;3.30;99.90;;;;;;4870170;29;20064;-87
2022/01/19 10:54:30;;;;;;;71.13;32.90;;;3.20;99.90;;;;;;4880016;29;20044;-87
2022/01/19 10:57:14;;;;;;;71.10;33.43;;;3.10;99.90;;;;;;4873693;29;20053;-86
2022/01/19 10:59:40;;;;;;;78.70;33.07;;;3.20;99.90;;;;;;4862127;29;20524;-86
2022/01/19 11:02:15;;;;;;;80.33;33.53;;;3.30;99.90;;;;;;4862495;29;20045;-86
2022/01/19 11:04:56;;;;;;;80.83;34.60;;;3.30;99.90;;;;;;4848025;29;20049;-86
2022/01/19 11:07:34;;;;;;;167.37;83.13;;;3.20;99.90;;;;;;4858844;29;20513;-87
2022/01/19 11:10:52;;;;;;;82.63;38.00;;;3.30;99.90;;;;;;4870047;29;20537;-86
2022/01/19 11:13:31;;;;;;;80.43;34.53;;;4.10;99.90;;;;;;4861057;29;20467;-86
2022/01/19 11:15:59;;;;;;;79.63;34.20;;;3.40;99.90;;;;;;4861841;29;20049;-86
2022/01/19 11:18:26;;;;;;;81.50;33.80;;;4.90;99.90;;;;;;4845370;29;20058;-86
2022/01/19 11:20:56;;;;;;;81.87;34.00;;;3.40;99.90;;;;;;4860403;29;20053;-87
2022/01/19 11:23:55;;;;;;;82.67;34.27;;;3.40;99.90;;;;;;4860030;29;20554;-86
2022/01/19 11:26:35;;;;;;;79.82;33.22;;;3.50;99.90;;;;;;4875862;29;20057;-86
2022/01/19 11:29:20;;;;;;;84.00;35.83;;;3.10;99.90;;;;;;4862353;29;20052;-86
2022/01/19 11:31:59;;;;;;;81.23;34.97;;;3.30;99.90;;;;;;4862537;29;20077;-86
2022/01/19 11:34:46;;;;;;;75.37;33.03;;;3.40;99.90;;;;;;4844794;29;20496;-85
2022/01/19 11:37:54;;;;;;;80.73;33.13;;;3.30;99.90;;;;;;4860859;29;20409;-88
2022/01/19 11:40:34;;;;;;;78.30;32.70;;;3.40;99.90;;;;;;4867289;29;20056;-85
2022/01/19 11:43:25;;;;;;;85.17;36.47;;;3.30;99.90;;;;;;4861183;29;20460;-85
2022/01/19 11:45:53;;;;;;;80.23;34.73;;;3.40;99.90;;;;;;4862361;29;20309;-85
2022/01/19 11:48:27;;;;;;;78.50;33.67;;;3.40;99.90;;;;;;4862685;29;20418;-85
2022/01/19 11:50:55;;;;;;;69.20;30.17;;;3.40;99.90;;;;;;4861197;29;20045;-85
2022/01/19 11:53:21;;;;;;;74.77;33.73;;;3.40;99.90;;;;;;4860920;29;20045;-86
2022/01/19 11:56:04;;;;;;;76.47;33.90;;;3.40;99.90;;;;;;4844600;29;20060;-85
2022/01/19 11:58:29;;;;;;;84.77;33.80;;;3.40;99.90;;;;;;4860301;29;20376;-85
2022/01/19 12:00:56;;;;;;;75.77;34.80;;;3.40;99.90;;;;;;4861064;29;20061;-85
2022/01/19 12:03:31;;;;;;;83.03;34.87;;;3.40;99.90;;;;;;4859406;29;20431;-85
2022/01/19 12:05:57;;;;;;;80.30;33.97;;;3.40;99.90;;;;;;4860361;29;20053;-85
2022/01/19 12:08:31;;;;;;;87.27;36.37;;;3.40;99.90;;;;;;4875503;29;20189;-85
2022/01/19 12:11:20;;;;;;;81.30;35.05;;;3.40;99.90;;;;;;4861035;29;20101;-84
2022/01/19 12:16:25;;;;;;;83.27;32.53;;;3.30;99.90;;;;;;4844451;29;20113;-84
2022/01/19 12:18:56;;;;;;;81.63;35.47;;;3.40;99.90;;;;;;4844784;29;20065;-85
2022/01/19 12:21:21;;;;;;;77.90;32.37;;;3.30;99.90;;;;;;4844806;29;20049;-85
2022/01/19 12:23:49;;;;;;;70.03;33.27;;;3.30;99.90;;;;;;4849205;29;20061;-85
2022/01/19 12:26:15;;;;;;;82.63;36.47;;;3.30;99.90;;;;;;4867679;29;20136;-86
2022/01/19 12:28:47;;;;;;;108.17;50.77;;;3.30;99.90;;;;;;4863517;29;20069;-85
2022/01/19 12:34:02;;;;;;;87.87;39.33;;;3.40;99.90;;;;;;4890400;24;20525;-85
2022/01/19 12:36:56;;;;;;;84.13;35.03;;;3.30;99.90;;;;;;4863145;29;20076;-85
2022/01/19 12:39:25;;;;;;;78.47;34.45;;;3.40;99.90;;;;;;4862467;29;20048;-85
2022/01/19 12:42:14;;;;;;;73.53;33.53;;;3.40;99.90;;;;;;4878664;29;20077;-85
2022/01/19 12:45:00;;;;;;;80.40;35.87;;;3.40;99.90;;;;;;4869548;29;20037;-85
2022/01/19 12:47:26;;;;;;;79.37;33.00;;;3.40;99.90;;;;;;4862836;29;20045;-85
2022/01/19 12:50:04;;;;;;;77.80;34.50;;;3.40;99.90;;;;;;4862589;29;20052;-84
2022/01/19 12:52:32;;;;;;;74.13;33.27;;;3.50;99.90;;;;;;4877621;29;20076;-84
2022/01/19 12:55:13;;;;;;;68.07;31.70;;;3.50;99.90;;;;;;4878471;29;20135;-84
2022/01/19 12:57:39;;;;;;;73.80;32.60;;;3.50;99.90;;;;;;4876721;29;20093;-84
2022/01/19 13:00:10;;;;;;;76.13;34.50;;;3.50;99.90;;;;;;4865875;29;20056;-86
2022/01/19 13:02:36;;;;;;;65.83;32.23;;;3.60;99.90;;;;;;4862897;29;20484;-85
2022/01/19 13:05:08;;;;;;;75.83;33.67;;;3.60;99.90;;;;;;4861320;29;20044;-85
2022/01/19 13:07:38;;;;;;;80.10;35.37;;;3.60;99.90;;;;;;4859247;29;20055;-84
2022/01/19 13:12:59;;;;;;;76.03;33.40;;;3.70;99.90;;;;;;4877182;29;20185;-84
2022/01/19 13:15:49;;;;;;;76.37;35.43;;;3.60;99.90;;;;;;4861909;29;20056;-84
2022/01/19 13:18:29;;;;;;;82.33;36.23;;;3.70;99.90;;;;;;4875253;29;20445;-85
2022/01/19 13:21:03;;;;;;;75.37;34.03;;;3.60;99.90;;;;;;4859023;29;20524;-84
2022/01/19 13:23:31;;;;;;;80.97;36.53;;;3.70;99.90;;;;;;4861723;29;20040;-84
2022/01/19 13:26:04;;;;;;;77.57;35.97;;;3.60;99.90;;;;;;4876637;29;20060;-84
2022/01/19 13:28:46;;;;;;;78.77;35.83;;;3.70;99.90;;;;;;4861045;29;20044;-85
2022/01/19 13:31:31;;;;;;;80.73;34.93;;;3.70;99.90;;;;;;4875220;29;20520;-85
2022/01/19 13:34:02;;;;;;;79.00;35.07;;;4.10;99.90;;;;;;4856288;29;20402;-85
2022/01/19 13:36:34;;;;;;;80.57;35.60;;;3.60;99.90;;;;;;4876422;29;20053;-85
2022/01/19 13:39:01;;;;;;;76.10;34.57;;;3.70;99.90;;;;;;4859890;29;20049;-85
2022/01/19 13:41:27;;;;;;;78.93;34.80;;;3.80;99.90;;;;;;4873103;29;20089;-85
2022/01/19 13:43:58;;;;;;;70.03;33.60;;;3.70;99.90;;;;;;4856171;29;20073;-85
2022/01/19 13:46:29;;;;;;;74.30;37.33;;;3.80;99.90;;;;;;4858353;29;20052;-85
2022/01/19 13:49:02;;;;;;;76.80;35.27;;;3.80;99.90;;;;;;4871436;29;20074;-84
2022/01/19 13:51:30;;;;;;;69.60;34.70;;;3.90;99.90;;;;;;4858948;29;20084;-85
2022/01/19 13:54:05;;;;;;;68.50;33.97;;;3.80;99.90;;;;;;4859291;29;20037;-85
2022/01/19 13:56:33;;;;;;;71.57;33.00;;;4.00;99.90;;;;;;4858710;29;20109;-84
2022/01/19 13:59:10;;;;;;;59.80;31.00;;;3.80;99.90;;;;;;4859961;29;20049;-85
2022/01/19 14:02:01;;;;;;;64.77;31.47;;;3.80;99.90;;;;;;4859454;29;20049;-84
2022/01/19 14:04:46;;;;;;;65.40;31.83;;;4.10;99.90;;;;;;4857823;29;20124;-84
2022/01/19 14:07:18;;;;;;;64.10;30.70;;;4.00;99.90;;;;;;4870683;29;20049;-85
2022/01/19 14:09:49;;;;;;;64.73;31.57;;;3.80;99.90;;;;;;4855679;29;20050;-85
2022/01/19 14:12:19;;;;;;;66.73;33.17;;;3.60;99.90;;;;;;4860868;29;20512;-84
2022/01/19 14:14:47;;;;;;;62.67;31.33;;;3.90;99.90;;;;;;4859368;29;20057;-85
2022/01/19 14:17:28;;;;;;;68.80;32.73;;;4.00;99.90;;;;;;4859865;29;20439;-85
2022/01/19 14:19:58;;;;;;;62.67;31.53;;;4.10;99.90;;;;;;4859348;29;20140;-85
2022/01/19 14:22:34;;;;;;;65.73;31.47;;;3.90;99.90;;;;;;4857734;29;20042;-85
2022/01/19 14:25:15;;;;;;;59.80;29.83;;;5.90;99.90;;;;;;4858692;29;20054;-85
2022/01/19 14:28:00;;;;;;;62.90;31.90;;;3.90;99.90;;;;;;4858631;29;20045;-84
2022/01/19 14:30:32;;;;;;;59.05;29.38;;;4.20;99.90;;;;;;4858246;29;20049;-85
2022/01/19 14:33:03;;;;;;;61.00;29.80;;;4.10;99.90;;;;;;4869142;29;20064;-84
2022/01/19 14:35:46;;;;;;;60.37;30.00;;;4.10;99.90;;;;;;4861789;29;20045;-85
2022/01/19 14:38:36;;;;;;;63.43;31.73;;;4.10;99.90;;;;;;4861758;29;20439;-86
2022/01/19 14:41:07;;;;;;;58.50;30.87;;;4.20;99.90;;;;;;4862811;29;20049;-87
2022/01/19 14:43:48;;;;;;;64.90;30.57;;;4.20;99.90;;;;;;4877143;29;20501;-87
2022/01/19 14:46:24;;;;;;;61.03;29.83;;;4.20;99.90;;;;;;4862470;29;20045;-87
2022/01/19 14:49:01;;;;;;;62.23;29.50;;;4.00;99.90;;;;;;4867064;29;20049;-86
2022/01/19 14:51:37;;;;;;;69.47;32.10;;;5.40;99.90;;;;;;4869022;29;20512;-87
2022/01/19 14:54:23;;;;;;;67.37;29.93;;;4.00;99.90;;;;;;4862654;29;20045;-86
2022/01/19 14:56:59;;;;;;;62.43;29.67;;;4.50;99.90;;;;;;4864225;29;20041;-87
2022/01/19 14:59:41;;;;;;;69.63;32.83;;;4.10;99.90;;;;;;4863970;29;20049;-87
2022/01/19 15:02:07;;;;;;;67.27;31.80;;;4.60;99.90;;;;;;4865464;29;20053;-86
2022/01/19 15:04:35;;;;;;;68.03;32.53;;;3.90;99.90;;;;;;4863630;29;20135;-86
2022/01/19 15:07:02;;;;;;;69.93;33.87;;;3.90;99.90;;;;;;4865070;29;20128;-87
2022/01/19 15:09:34;;;;;;;71.17;35.17;;;4.00;99.90;;;;;;4864527;29;20037;-87
2022/01/19 15:12:00;;;;;;;67.73;32.30;;;4.10;99.90;;;;;;4862450;29;20056;-87
2022/01/19 15:14:27;;;;;;;59.67;29.93;;;3.90;99.90;;;;;;4880135;29;20071;-88
2022/01/19 15:16:53;;;;;;;65.63;31.73;;;4.80;99.90;;;;;;4865317;29;20123;-86
2022/01/19 15:19:34;;;;;;;77.53;34.43;;;3.90;99.90;;;;;;4879911;29;20124;-86
2022/01/19 15:22:04;;;;;;;68.97;32.17;;;4.10;99.90;;;;;;4865084;29;20136;-86
2022/01/19 15:24:30;;;;;;;66.80;30.77;;;4.00;99.90;;;;;;4867780;29;20088;-86
2022/01/19 15:26:56;;;;;;;70.43;32.07;;;4.30;99.90;;;;;;4870859;29;20131;-86
2022/01/19 15:29:25;;;;;;;72.37;36.27;;;3.90;99.90;;;;;;4864817;29;20124;-86
2022/01/19 15:31:50;;;;;;;67.67;34.20;;;4.00;99.90;;;;;;4881016;29;20052;-86
2022/01/19 15:34:20;;;;;;;73.80;38.13;;;4.00;99.90;;;;;;4863523;29;20071;-86
2022/01/19 15:37:04;;;;;;;66.53;31.13;;;4.00;99.90;;;;;;4864317;29;20067;-86
2022/01/19 15:39:47;;;;;;;72.30;34.55;;;3.90;99.90;;;;;;4879468;29;20450;-86
2022/01/19 15:42:14;;;;;;;71.32;33.35;;;3.50;99.90;;;;;;4879197;29;20550;-85
2022/01/19 15:44:41;;;;;;;72.13;32.60;;;4.10;99.90;;;;;;4876705;24;20057;-85
2022/01/19 15:47:13;;;;;;;74.37;32.53;;;4.30;99.90;;;;;;4893005;29;20060;-86
2022/01/19 15:49:39;;;;;;;79.20;35.10;;;4.70;99.90;;;;;;4879950;29;20071;-85
2022/01/19 15:52:05;;;;;;;76.37;33.20;;;4.10;99.90;;;;;;4879521;29;20560;-87
2022/01/19 15:54:32;;;;;;;76.00;32.03;;;4.20;99.90;;;;;;4879258;29;20049;-87
2022/01/19 15:57:13;;;;;;;76.33;33.80;;;3.90;99.90;;;;;;4878208;29;20056;-86
2022/01/19 15:59:45;;;;;;;78.13;32.57;;;6.00;99.90;;;;;;4879940;29;20370;-87
2022/01/19 16:02:27;;;;;;;79.33;33.17;;;4.10;99.90;;;;;;4886266;29;20044;-86
2022/01/19 16:05:08;;;;;;;70.23;30.67;;;4.60;99.90;;;;;;4881515;29;20044;-87
2022/01/19 16:07:52;;;;;;;77.57;32.00;;;4.30;99.90;;;;;;4879012;29;20394;-86
2022/01/19 16:10:18;;;;;;;79.67;32.90;;;5.30;99.90;;;;;;4878934;29;20053;-85
2022/01/19 16:12:43;;;;;;;86.93;37.07;;;5.40;99.90;;;;;;4879527;29;20545;-86
2022/01/19 16:15:18;;;;;;;77.17;32.50;;;5.70;99.90;;;;;;4878906;29;20063;-87
2022/01/19 16:17:53;;;;;;;75.83;32.13;;;4.30;99.90;;;;;;4879000;29;20041;-86
2022/01/19 16:20:25;;;;;;;70.40;30.67;;;5.30;99.90;;;;;;4893266;29;20101;-82
2022/01/19 16:28:26;;;;;;;63.73;27.30;;;4.20;99.90;;;;;;4878217;29;20060;-81
2022/01/19 16:30:52;;;;;;;75.63;30.27;;;4.50;99.90;;;;;;4877497;29;20049;-81